Time;durP1;ratioP1;P1;durP2;ratioP2;P2;SDS_P1;SDS_P2;PMS_P1;PMS_P2;Temp;Humidity;BMP_temperature;BMP_pressure;BME280_temperature;BME280_humidity;BME280_pressure;Samples;Min_cycle;Max_cycle;Signal;HPM_P1;HPM_P2
2021/08/05 00:00:18;;;;;;;16.17;7.63;;;;;;;19.62;64.52;98606.14;125651;1096;103048;-78
2021/08/05 00:03:06;;;;;;;17.30;8.27;;;;;;;19.61;64.61;98604.46;125638;1095;103035;-79
2021/08/05 00:05:35;;;;;;;15.63;7.77;;;;;;;19.59;64.69;98606.50;125638;1097;103544;-80
2021/08/05 00:08:05;;;;;;;16.10;8.20;;;;;;;19.57;64.69;98611.23;125662;1096;103441;-77
2021/08/05 00:10:36;;;;;;;18.17;8.53;;;;;;;19.53;65.04;98601.83;125617;1095;103003;-80
2021/08/05 00:13:05;;;;;;;16.80;8.33;;;;;;;19.52;64.93;98602.84;125640;1094;103694;-78
2021/08/05 00:15:33;;;;;;;16.93;7.87;;;;;;;19.49;64.87;98603.20;125730;1092;102984;-79
2021/08/05 00:18:06;;;;;;;19.13;8.83;;;;;;;19.49;65.08;98592.41;125678;1093;103005;-78
2021/08/05 00:20:35;;;;;;;16.93;8.47;;;;;;;19.46;65.14;98588.23;125880;1093;103015;-78
2021/08/05 00:23:03;;;;;;;16.87;8.00;;;;;;;19.46;65.18;98577.45;125790;1093;103015;-78
2021/08/05 00:25:31;;;;;;;17.17;8.17;;;;;;;19.44;65.23;98582.19;125889;1096;103074;-79
2021/08/05 00:28:00;;;;;;;17.63;9.53;;;;;;;19.43;65.35;98577.81;125734;1093;103417;-78
2021/08/05 00:30:29;;;;;;;18.75;9.80;;;;;;;19.42;65.22;98589.61;126542;1093;102918;-79
2021/08/05 00:33:01;;;;;;;22.50;9.70;;;;;;;19.39;65.22;98583.72;125657;1093;102920;-78
2021/08/05 00:35:30;;;;;;;21.90;9.37;;;;;;;19.40;65.20;98582.70;125728;1093;102908;-79
2021/08/05 00:38:02;;;;;;;18.37;9.60;;;;;;;19.39;65.38;98589.12;125652;1093;103041;-79
2021/08/05 00:40:31;;;;;;;19.88;10.25;;;;;;;19.39;65.40;98589.12;125681;1093;103377;-80
2021/08/05 00:42:59;;;;;;;18.23;9.77;;;;;;;19.39;65.57;98578.33;125654;1093;103084;-79
2021/08/05 00:45:28;;;;;;;17.97;9.70;;;;;;;19.38;65.59;98571.27;126057;1094;103009;-79
2021/08/05 00:47:56;;;;;;;22.40;9.77;;;;;;;19.37;65.86;98569.58;125711;1093;103035;-78
2021/08/05 00:50:29;;;;;;;19.33;9.63;;;;;;;19.34;65.63;98565.41;125660;1093;103041;-79
2021/08/05 00:53:02;;;;;;;19.87;10.80;;;;;;;19.35;65.80;98564.38;125724;1097;103026;-78
2021/08/05 00:55:30;;;;;;;19.23;10.50;;;;;;;19.34;65.69;98554.62;125663;1093;102931;-77
2021/08/05 00:57:59;;;;;;;19.97;10.37;;;;;;;19.31;66.06;98558.53;126521;1097;102892;-76
2021/08/05 01:00:30;;;;;;;19.73;10.70;;;;;;;19.29;66.17;98554.31;125720;1095;102977;-77
2021/08/05 01:03:06;;;;;;;18.27;10.03;;;;;;;19.29;66.02;98546.23;125576;1096;103093;-77
2021/08/05 01:05:43;;;;;;;18.83;9.50;;;;;;;19.28;65.94;98548.09;125632;1095;102924;-77
2021/08/05 01:08:22;;;;;;;19.20;9.67;;;;;;;19.28;65.94;98545.41;125643;1095;103026;-75
2021/08/05 01:11:17;;;;;;;20.70;9.53;;;;;;;19.27;66.29;98538.34;125658;1095;103164;-75
2021/08/05 01:14:00;;;;;;;19.27;9.67;;;;;;;19.25;66.14;98534.13;125632;1095;103074;-75
2021/08/05 01:16:36;;;;;;;16.97;8.93;;;;;;;19.24;66.27;98530.61;125684;1097;103460;-78
2021/08/05 01:19:45;;;;;;;16.53;8.93;;;;;;;19.25;66.48;98529.59;125702;1097;102913;-76
2021/08/05 01:22:39;;;;;;;18.53;9.17;;;;;;;19.22;66.40;98529.95;125552;1096;102949;-75
2021/08/05 01:25:15;;;;;;;17.33;8.93;;;;;;;19.22;66.34;98529.09;125707;1096;102974;-79
2021/08/05 01:27:48;;;;;;;18.03;8.83;;;;;;;19.22;66.40;98523.70;125668;1097;103023;-79
2021/08/05 01:30:17;;;;;;;17.53;9.00;;;;;;;19.21;66.57;98519.33;125667;1096;103571;-78
2021/08/05 01:32:49;;;;;;;18.47;9.77;;;;;;;19.21;66.41;98511.23;125739;1097;102939;-78
2021/08/05 01:35:17;;;;;;;18.23;8.70;;;;;;;19.19;66.61;98509.56;125657;1096;102914;-78
2021/08/05 01:37:50;;;;;;;16.47;8.97;;;;;;;19.19;66.58;98524.91;125688;1096;103357;-78
2021/08/05 01:40:22;;;;;;;17.43;9.10;;;;;;;19.16;66.39;98509.09;125692;1097;102913;-77
2021/08/05 01:42:56;;;;;;;16.10;8.85;;;;;;;19.13;66.52;98502.23;125632;1097;103012;-76
2021/08/05 01:45:29;;;;;;;16.27;8.53;;;;;;;19.13;66.88;98504.06;125697;1096;103249;-77
2021/08/05 01:47:59;;;;;;;20.83;8.90;;;;;;;19.10;66.52;98489.11;125681;1097;102997;-77
2021/08/05 01:50:31;;;;;;;17.43;8.37;;;;;;;19.07;66.48;98486.77;125654;1096;103029;-76
2021/08/05 01:53:00;;;;;;;16.60;8.48;;;;;;;19.02;66.60;98475.69;125689;1097;103050;-77
2021/08/05 01:55:32;;;;;;;17.33;8.73;;;;;;;18.95;66.45;98475.52;125671;1096;103128;-76
2021/08/05 01:58:01;;;;;;;17.47;8.37;;;;;;;18.92;66.54;98464.28;125663;1096;103155;-76
2021/08/05 02:00:30;;;;;;;16.47;8.63;;;;;;;18.90;66.92;98462.61;125669;1096;102996;-76
2021/08/05 02:03:10;;;;;;;16.23;8.33;;;;;;;18.87;66.77;98464.84;125704;1097;102917;-76
2021/08/05 02:06:07;;;;;;;15.83;8.43;;;;;;;18.85;66.87;98473.08;125587;1095;103572;-77
2021/08/05 02:08:50;;;;;;;17.57;9.10;;;;;;;18.83;66.79;98464.34;125657;1097;103140;-77
2021/08/05 02:11:28;;;;;;;13.27;6.93;;;;;;;18.83;67.28;98452.73;125662;1097;102948;-77
2021/08/05 02:14:02;;;;;;;16.77;8.47;;;;;;;18.83;66.96;98450.05;125559;1096;103031;-76
2021/08/05 02:16:37;;;;;;;16.57;8.60;;;;;;;18.80;67.01;98447.70;125687;1096;102911;-78
2021/08/05 02:19:08;;;;;;;18.17;8.90;;;;;;;18.75;66.96;98443.69;125697;1095;103023;-78
2021/08/05 02:21:42;;;;;;;18.00;7.90;;;;;;;18.75;66.91;98445.53;125623;1096;103030;-78
2021/08/05 02:24:16;;;;;;;16.77;8.30;;;;;;;18.73;67.37;98445.73;125697;1096;102918;-78
2021/08/05 02:26:49;;;;;;;15.03;8.20;;;;;;;18.68;67.37;98445.42;125663;1097;102945;-78
2021/08/05 02:29:22;;;;;;;15.20;8.40;;;;;;;18.65;67.34;98453.04;125699;1097;102917;-79
2021/08/05 02:31:54;;;;;;;16.60;8.18;;;;;;;18.64;67.08;98460.27;125664;1096;103098;-78
2021/08/05 02:34:28;;;;;;;20.30;8.80;;;;;;;18.64;67.12;98459.44;125656;1096;103042;-77
2021/08/05 02:37:00;;;;;;;15.17;7.77;;;;;;;18.63;67.26;98460.45;125752;1097;103002;-77
2021/08/05 02:39:29;;;;;;;16.93;7.85;;;;;;;18.59;67.30;98460.81;125656;1095;103425;-77
2021/08/05 02:42:02;;;;;;;18.43;8.07;;;;;;;18.58;67.64;98463.66;125734;1097;103064;-78
2021/08/05 02:44:35;;;;;;;15.57;8.17;;;;;;;18.55;67.36;98456.80;125668;1095;103058;-78
2021/08/05 02:47:07;;;;;;;17.00;8.33;;;;;;;18.53;67.52;98449.92;125705;1097;102937;-78
2021/08/05 02:49:42;;;;;;;16.87;8.43;;;;;;;18.51;67.43;98460.86;125692;1096;103191;-78
2021/08/05 02:52:11;;;;;;;16.58;8.20;;;;;;;18.47;67.90;98464.09;125676;1097;102914;-79
2021/08/05 02:54:43;;;;;;;18.97;7.87;;;;;;;18.47;67.57;98466.78;125719;1095;103393;-78
2021/08/05 02:57:16;;;;;;;19.40;8.90;;;;;;;18.44;67.57;98468.81;125682;1097;103013;-78
2021/08/05 02:59:44;;;;;;;18.18;8.05;;;;;;;18.44;68.01;98463.44;125680;1095;103037;-77
2021/08/05 03:02:20;;;;;;;18.60;8.23;;;;;;;18.43;67.70;98459.06;125714;1097;102939;-77
2021/08/05 03:04:52;;;;;;;16.55;8.05;;;;;;;18.41;68.06;98463.78;125672;1097;103009;-77
2021/08/05 03:07:20;;;;;;;17.87;8.33;;;;;;;18.39;68.03;98465.81;125741;1097;103078;-77
2021/08/05 03:09:49;;;;;;;15.27;8.30;;;;;;;18.41;68.20;98465.63;125715;1097;102942;-78
2021/08/05 03:12:18;;;;;;;15.47;8.30;;;;;;;18.41;68.15;98461.09;125707;1097;103188;-77
2021/08/05 03:14:46;;;;;;;15.43;7.87;;;;;;;18.39;68.11;98462.27;125716;1094;103004;-77
2021/08/05 03:17:15;;;;;;;16.30;8.33;;;;;;;18.35;68.03;98458.25;125777;1094;103122;-77
2021/08/05 03:19:43;;;;;;;17.87;8.63;;;;;;;18.35;68.27;98456.41;125672;1095;102938;-76
2021/08/05 03:22:11;;;;;;;15.27;8.10;;;;;;;18.36;68.21;98454.55;125689;1096;103087;-77
2021/08/05 03:24:41;;;;;;;18.80;8.67;;;;;;;18.38;68.36;98447.13;125673;1096;103145;-76
2021/08/05 03:27:13;;;;;;;18.77;8.33;;;;;;;18.39;68.07;98441.58;125722;1097;103012;-76
2021/08/05 03:29:42;;;;;;;18.00;9.20;;;;;;;18.40;68.37;98437.02;125702;1097;103065;-76
2021/08/05 03:32:10;;;;;;;17.10;8.63;;;;;;;18.40;68.23;98435.19;125686;1094;103390;-78
2021/08/05 03:34:38;;;;;;;16.53;8.77;;;;;;;18.32;68.04;98429.02;126544;1095;103152;-78
2021/08/05 03:37:08;;;;;;;16.70;9.00;;;;;;;18.28;68.47;98431.20;125644;1095;103062;-78
2021/08/05 03:39:36;;;;;;;16.20;8.77;;;;;;;18.24;68.30;98419.12;125855;1095;102916;-78
2021/08/05 03:42:05;;;;;;;21.27;9.07;;;;;;;18.25;68.46;98428.87;127633;1094;100620;-78
2021/08/05 03:44:34;;;;;;;19.75;9.25;;;;;;;18.24;68.11;98427.19;126511;1096;103034;-78
2021/08/05 03:47:03;;;;;;;17.00;8.73;;;;;;;18.26;68.21;98423.33;126622;1095;103016;-78
2021/08/05 03:49:31;;;;;;;16.47;8.20;;;;;;;18.27;68.21;98421.45;125705;1094;102911;-77
2021/08/05 03:51:59;;;;;;;20.03;9.10;;;;;;;18.27;68.73;98422.31;125710;1095;103038;-77
2021/08/05 03:54:28;;;;;;;18.17;8.93;;;;;;;18.29;68.54;98427.50;125793;1096;103010;-79
2021/08/05 03:56:56;;;;;;;18.37;9.77;;;;;;;18.22;68.65;98435.45;125788;1096;102984;-77
2021/08/05 03:59:24;;;;;;;19.07;8.77;;;;;;;18.17;68.83;98428.91;125737;1097;104432;-78
2021/08/05 04:01:55;;;;;;;18.80;9.00;;;;;;;18.16;68.58;98430.77;125666;1095;102913;-79
2021/08/05 04:04:28;;;;;;;16.83;9.13;;;;;;;18.19;68.61;98424.19;125697;1096;102933;-78
2021/08/05 04:06:56;;;;;;;21.07;9.60;;;;;;;18.24;68.68;98421.80;125679;1096;102991;-79
2021/08/05 04:09:25;;;;;;;19.03;9.63;;;;;;;18.25;68.60;98420.80;125726;1096;102920;-78
2021/08/05 04:11:53;;;;;;;17.80;9.70;;;;;;;18.24;68.92;98413.73;125701;1097;103119;-77
2021/08/05 04:14:21;;;;;;;20.05;10.85;;;;;;;18.21;69.09;98406.86;125682;1095;103132;-77
2021/08/05 04:16:53;;;;;;;19.90;10.27;;;;;;;18.25;69.09;98404.64;125713;1095;103015;-77
2021/08/05 04:19:26;;;;;;;19.83;9.80;;;;;;;18.25;69.13;98394.73;125683;1097;102933;-77
2021/08/05 04:21:58;;;;;;;19.93;10.03;;;;;;;18.29;68.82;98390.67;125707;1096;103002;-76
2021/08/05 04:24:26;;;;;;;19.13;9.60;;;;;;;18.32;69.31;98400.23;125696;1097;103058;-77
2021/08/05 04:26:54;;;;;;;19.07;10.53;;;;;;;18.30;68.79;98396.88;125685;1096;103039;-77
2021/08/05 04:29:23;;;;;;;20.60;10.60;;;;;;;18.27;69.21;98391.84;125704;1096;102884;-79
2021/08/05 04:31:53;;;;;;;19.60;10.10;;;;;;;18.28;69.32;98380.92;125667;1097;103056;-79
2021/08/05 04:34:22;;;;;;;17.25;9.65;;;;;;;18.30;69.14;98383.42;125702;1096;103493;-78
2021/08/05 04:36:50;;;;;;;18.67;10.67;;;;;;;18.32;69.55;98376.00;125674;1096;103249;-78
2021/08/05 04:39:20;;;;;;;17.00;9.75;;;;;;;18.32;69.53;98370.62;125663;1096;103009;-78
2021/08/05 04:41:52;;;;;;;19.10;10.20;;;;;;;18.33;69.06;98371.47;125710;1096;102917;-77
2021/08/05 04:44:20;;;;;;;20.33;10.10;;;;;;;18.32;69.56;98365.23;125710;1097;103023;-78
2021/08/05 04:46:48;;;;;;;18.37;10.30;;;;;;;18.34;69.58;98360.51;125706;1096;102916;-77
2021/08/05 04:49:17;;;;;;;17.90;9.57;;;;;;;18.35;69.62;98354.11;125679;1097;103066;-77
2021/08/05 04:51:45;;;;;;;17.33;9.07;;;;;;;18.34;69.56;98362.38;125692;1096;103026;-79
2021/08/05 04:54:14;;;;;;;18.50;9.33;;;;;;;18.32;69.65;98362.54;125719;1093;102908;-78
2021/08/05 04:56:42;;;;;;;18.17;9.33;;;;;;;18.33;69.62;98369.60;125695;1094;102956;-78
2021/08/05 04:59:10;;;;;;;17.20;9.30;;;;;;;18.34;69.74;98370.45;125702;1096;102913;-79
2021/08/05 05:01:39;;;;;;;17.97;9.23;;;;;;;18.36;69.68;98374.63;125663;1095;102927;-77
2021/08/05 05:04:11;;;;;;;19.53;10.67;;;;;;;18.40;69.82;98365.19;125691;1094;103007;-78
2021/08/05 05:06:40;;;;;;;21.50;10.87;;;;;;;18.42;69.51;98363.15;125920;1095;102929;-84
2021/08/05 05:09:12;;;;;;;18.78;10.98;;;;;;;18.47;69.49;98367.16;125786;1096;102942;-84
2021/08/05 05:11:43;;;;;;;20.87;10.90;;;;;;;18.50;69.99;98369.50;125833;1096;103003;-85
2021/08/05 05:14:14;;;;;;;21.57;11.30;;;;;;;18.53;69.52;98361.88;125789;1095;102980;-84
2021/08/05 05:16:42;;;;;;;21.57;11.40;;;;;;;18.57;69.62;98371.28;125483;1096;103071;-83
2021/08/05 05:19:15;;;;;;;19.53;11.63;;;;;;;18.61;69.64;98369.05;125660;1095;103068;-82
2021/08/05 05:21:47;;;;;;;22.23;11.43;;;;;;;18.65;69.82;98364.98;125837;1096;103065;-83
2021/08/05 05:24:19;;;;;;;22.60;11.87;;;;;;;18.71;70.12;98358.05;125917;1095;103026;-83
2021/08/05 05:26:55;;;;;;;20.90;12.07;;;;;;;18.74;70.18;98353.13;126354;1095;103022;-82
2021/08/05 05:29:24;;;;;;;22.73;12.20;;;;;;;18.75;69.73;98349.41;126580;1097;103054;-85
2021/08/05 05:31:54;;;;;;;21.83;11.70;;;;;;;18.77;69.89;98354.59;126459;1096;101659;-85
2021/08/05 05:34:26;;;;;;;25.07;11.77;;;;;;;18.81;69.71;98353.22;125971;1096;102916;-84
2021/08/05 05:36:55;;;;;;;20.27;11.27;;;;;;;18.81;69.86;98352.40;125676;1095;102924;-85
2021/08/05 05:39:26;;;;;;;19.37;11.37;;;;;;;18.81;70.22;98349.70;125693;1096;103011;-81
2021/08/05 05:41:54;;;;;;;24.33;11.93;;;;;;;18.85;70.24;98361.80;125852;1095;102935;-80
2021/08/05 05:44:23;;;;;;;20.77;11.57;;;;;;;18.89;70.13;98349.63;125793;1095;103093;-79
2021/08/05 05:46:51;;;;;;;20.23;10.73;;;;;;;18.92;70.16;98353.80;125842;1094;103090;-82
2021/08/05 05:49:19;;;;;;;23.57;12.63;;;;;;;18.85;70.26;98353.70;125629;1095;102922;-83
2021/08/05 05:51:48;;;;;;;22.97;12.80;;;;;;;18.84;69.98;98344.77;125702;1095;103067;-82
2021/08/05 05:54:16;;;;;;;23.90;13.80;;;;;;;18.87;70.13;98357.06;125660;1096;103078;-82
2021/08/05 05:56:44;;;;;;;21.43;12.67;;;;;;;18.87;70.13;98347.11;125680;1096;103065;-82
2021/08/05 05:59:15;;;;;;;23.63;14.10;;;;;;;18.90;70.41;98346.74;125662;1096;102918;-82
2021/08/05 06:01:44;;;;;;;22.60;12.57;;;;;;;18.92;70.36;98333.10;125651;1096;102923;-80
2021/08/05 06:04:14;;;;;;;23.77;12.33;;;;;;;18.94;70.52;98322.13;125645;1095;103122;-78
2021/08/05 06:06:43;;;;;;;20.53;12.60;;;;;;;18.93;70.08;98320.45;125637;1095;103012;-82
2021/08/05 06:09:11;;;;;;;21.53;12.67;;;;;;;18.91;70.41;98315.26;125665;1096;103013;-83
2021/08/05 06:11:39;;;;;;;21.13;11.83;;;;;;;18.93;70.40;98313.22;125666;1095;103047;-77
2021/08/05 06:14:08;;;;;;;22.83;13.27;;;;;;;18.95;70.55;98308.45;125721;1095;103015;-77
2021/08/05 06:16:36;;;;;;;22.40;13.00;;;;;;;18.98;70.55;98310.81;125636;1095;103106;-76
2021/08/05 06:19:05;;;;;;;26.73;16.53;;;;;;;19.01;70.71;98306.93;125633;1095;103020;-84
2021/08/05 06:21:33;;;;;;;31.93;20.63;;;;;;;19.04;70.51;98304.69;125855;1094;102927;-78
2021/08/05 06:24:02;;;;;;;23.53;13.43;;;;;;;19.09;70.63;98303.30;125676;1095;103044;-78
2021/08/05 06:26:33;;;;;;;22.23;12.93;;;;;;;19.14;70.42;98288.27;125750;1095;103044;-79
2021/08/05 06:29:01;;;;;;;20.80;12.00;;;;;;;19.12;70.42;98286.76;125714;1094;102946;-76
2021/08/05 06:31:30;;;;;;;21.73;12.93;;;;;;;19.13;70.48;98297.38;126114;1095;101796;-79
2021/08/05 06:33:58;;;;;;;23.05;12.85;;;;;;;19.19;70.86;98293.91;125956;1096;103016;-76
2021/08/05 06:36:26;;;;;;;22.70;13.10;;;;;;;19.27;70.87;98292.14;125720;1095;102998;-77
2021/08/05 06:38:56;;;;;;;22.90;13.20;;;;;;;19.32;70.46;98287.03;125671;1096;103009;-85
2021/08/05 06:41:25;;;;;;;21.73;12.67;;;;;;;19.40;70.77;98277.98;125726;1094;103055;-78
2021/08/05 06:43:54;;;;;;;21.20;12.60;;;;;;;19.46;70.69;98285.33;125612;1095;103166;-76
2021/08/05 06:46:26;;;;;;;23.77;12.67;;;;;;;19.53;70.82;98282.73;125730;1095;103000;-77
2021/08/05 06:48:57;;;;;;;21.33;12.60;;;;;;;19.63;70.79;98277.86;125710;1096;103030;-75
2021/08/05 06:51:25;;;;;;;24.45;15.10;;;;;;;19.76;70.76;98282.59;125656;1096;103087;-79
2021/08/05 06:53:53;;;;;;;23.20;13.30;;;;;;;19.85;70.80;98275.20;125730;1095;103000;-78
2021/08/05 06:56:22;;;;;;;21.00;11.40;;;;;;;19.93;70.85;98275.95;125748;1095;102948;-79
2021/08/05 06:58:51;;;;;;;21.40;12.10;;;;;;;20.00;70.89;98286.80;125756;1093;102995;-78
2021/08/05 07:01:20;;;;;;;21.60;11.33;;;;;;;20.06;70.73;98275.24;125651;1095;102923;-74
2021/08/05 07:03:49;;;;;;;21.23;12.57;;;;;;;20.12;71.06;98260.16;125666;1093;103066;-74
2021/08/05 07:06:17;;;;;;;19.80;11.25;;;;;;;20.23;70.80;98270.41;125683;1096;103129;-76
2021/08/05 07:08:45;;;;;;;19.17;11.23;;;;;;;20.33;70.93;98264.70;125556;1096;103065;-76
2021/08/05 07:11:14;;;;;;;22.00;11.63;;;;;;;20.37;70.74;98265.99;125690;1095;103001;-75
2021/08/05 07:13:42;;;;;;;20.07;11.80;;;;;;;20.48;70.74;98271.88;125683;1097;103064;-77
2021/08/05 07:16:10;;;;;;;20.67;10.50;;;;;;;20.56;70.74;98276.31;125683;1097;103071;-79
2021/08/05 07:18:39;;;;;;;20.50;11.33;;;;;;;20.64;70.77;98279.70;125659;1095;103001;-80
2021/08/05 07:21:14;;;;;;;19.90;11.10;;;;;;;20.71;71.04;98284.33;125695;1095;103189;-82
2021/08/05 07:23:43;;;;;;;21.37;11.10;;;;;;;20.77;70.77;98283.57;125854;1095;102938;-81
2021/08/05 07:26:11;;;;;;;22.33;10.73;;;;;;;20.83;70.83;98282.75;125861;1095;103003;-82
2021/08/05 07:28:39;;;;;;;19.83;10.60;;;;;;;20.90;70.88;98291.75;125619;1095;103995;-80
2021/08/05 07:31:08;;;;;;;22.70;9.90;;;;;;;20.98;70.87;98277.27;125682;1095;103028;-77
2021/08/05 07:33:36;;;;;;;24.27;9.97;;;;;;;21.12;70.56;98283.58;125708;1093;103057;-79
2021/08/05 07:36:07;;;;;;;22.23;11.93;;;;;;;21.24;70.59;98290.08;125686;1095;102916;-78
2021/08/05 07:38:35;;;;;;;21.10;12.40;;;;;;;21.29;70.93;98288.64;125720;1093;102913;-79
2021/08/05 07:41:04;;;;;;;19.03;11.07;;;;;;;21.32;70.99;98283.69;125914;1095;102919;-79
2021/08/05 07:43:32;;;;;;;19.53;10.93;;;;;;;21.35;70.77;98294.11;125678;1096;103009;-78
2021/08/05 07:46:06;;;;;;;19.73;11.55;;;;;;;21.38;70.91;98288.30;125638;1095;103021;-80
2021/08/05 07:48:35;;;;;;;20.90;11.33;;;;;;;21.41;70.41;98289.75;125837;1096;102976;-81
2021/08/05 07:51:05;;;;;;;20.27;11.43;;;;;;;21.44;70.14;98280.39;125866;1095;102945;-80
2021/08/05 07:53:34;;;;;;;23.57;11.00;;;;;;;21.47;70.53;98277.28;125689;1095;103027;-80
2021/08/05 07:56:06;;;;;;;18.10;10.57;;;;;;;21.61;70.73;98270.90;125712;1094;103031;-82
2021/08/05 07:58:34;;;;;;;18.58;9.80;;;;;;;21.97;70.57;98277.90;125679;1096;103009;-79
2021/08/05 08:01:06;;;;;;;19.20;9.53;;;;;;;22.16;70.12;98268.14;125683;1094;103534;-86
2021/08/05 08:03:38;;;;;;;21.00;10.77;;;;;;;22.27;70.81;98271.28;125860;1095;103103;-81
2021/08/05 08:06:07;;;;;;;18.67;11.20;;;;;;;22.40;70.70;98265.03;125833;1094;102998;-81
2021/08/05 08:08:35;;;;;;;20.87;10.90;;;;;;;22.50;70.07;98264.64;125712;1094;103265;-81
2021/08/05 08:11:04;;;;;;;20.57;11.03;;;;;;;22.60;70.33;98267.77;125841;1093;102716;-79
2021/08/05 08:13:35;;;;;;;18.03;9.97;;;;;;;22.75;69.73;98252.13;125695;1095;102941;-77
2021/08/05 08:16:04;;;;;;;17.40;10.10;;;;;;;22.96;70.11;98252.91;125610;1096;102915;-80
2021/08/05 08:18:34;;;;;;;20.33;11.13;;;;;;;22.99;70.06;98257.09;125702;1096;103003;-81
2021/08/05 08:21:04;;;;;;;19.93;10.40;;;;;;;23.03;69.89;98255.59;125932;1093;102914;-82
2021/08/05 08:23:32;;;;;;;18.47;10.83;;;;;;;23.05;69.93;98254.35;125682;1095;103095;-86
2021/08/05 08:26:00;;;;;;;18.53;10.50;;;;;;;23.08;70.18;98252.27;125921;1096;103015;-79
2021/08/05 08:28:29;;;;;;;18.67;10.40;;;;;;;23.09;70.34;98248.50;125709;1095;102914;-81
2021/08/05 08:30:57;;;;;;;19.63;10.33;;;;;;;23.09;70.06;98240.37;125675;1093;102968;-83
2021/08/05 08:33:25;;;;;;;19.33;10.17;;;;;;;23.03;69.77;98239.32;125846;1095;102997;-78
2021/08/05 08:35:54;;;;;;;19.10;11.03;;;;;;;22.97;69.52;98229.35;125622;1093;103454;-83
2021/08/05 08:38:24;;;;;;;19.20;10.80;;;;;;;22.87;69.50;98227.91;125669;1094;103015;-75
2021/08/05 08:40:57;;;;;;;16.93;10.50;;;;;;;22.78;69.45;98231.88;125634;1095;103031;-74
2021/08/05 08:43:32;;;;;;;20.50;10.73;;;;;;;22.72;69.37;98230.02;125709;1093;102916;-74
2021/08/05 08:46:02;;;;;;;17.40;10.50;;;;;;;22.72;69.46;98230.86;125618;1096;103093;-72
2021/08/05 08:48:34;;;;;;;19.77;10.33;;;;;;;22.74;69.60;98236.06;125647;1095;102945;-73
2021/08/05 08:51:05;;;;;;;23.05;10.43;;;;;;;22.74;69.43;98227.92;125700;1096;103074;-77
2021/08/05 08:53:40;;;;;;;19.53;10.47;;;;;;;22.73;69.32;98215.41;125670;1094;102916;-78
2021/08/05 08:56:09;;;;;;;19.87;10.03;;;;;;;22.73;69.08;98212.70;125638;1093;103051;-75
2021/08/05 08:58:42;;;;;;;19.07;9.77;;;;;;;22.69;69.30;98215.02;125613;1096;102985;-71
2021/08/05 09:01:10;;;;;;;18.03;9.35;;;;;;;22.71;69.07;98214.79;125766;1093;103377;-76
2021/08/05 09:03:42;;;;;;;19.07;9.57;;;;;;;22.78;69.25;98207.48;125733;1095;103026;-75
2021/08/05 09:06:10;;;;;;;17.37;10.10;;;;;;;22.88;69.08;98213.31;125659;1095;103015;-75
2021/08/05 09:08:43;;;;;;;19.75;10.80;;;;;;;22.97;69.07;98213.90;125718;1094;102911;-77
2021/08/05 09:11:11;;;;;;;16.98;9.30;;;;;;;23.00;69.25;98218.08;125666;1095;103419;-76
2021/08/05 09:13:40;;;;;;;18.00;9.67;;;;;;;23.06;68.76;98214.48;125697;1093;103080;-75
2021/08/05 09:16:29;;;;;;;17.80;9.33;;;;;;;23.11;68.87;98216.58;125708;1094;102926;-71
2021/08/05 09:19:16;;;;;;;17.30;8.65;;;;;;;23.26;69.01;98208.20;125681;1093;103090;-74
2021/08/05 09:21:53;;;;;;;16.63;8.70;;;;;;;23.47;68.58;98223.34;125726;1095;103064;-86
2021/08/05 09:24:30;;;;;;;18.17;9.40;;;;;;;23.52;69.10;98214.54;125648;1093;103457;-80
2021/08/05 09:27:02;;;;;;;18.37;8.63;;;;;;;23.58;68.81;98219.95;125821;1095;103076;-82
2021/08/05 09:29:31;;;;;;;17.40;9.03;;;;;;;23.60;69.02;98222.44;125726;1093;102937;-86
2021/08/05 09:32:03;;;;;;;17.57;8.87;;;;;;;23.57;68.64;98218.29;126172;1095;102920;-87
2021/08/05 09:34:36;;;;;;;17.63;8.58;;;;;;;23.54;68.82;98217.88;126041;1093;101831;-85
2021/08/05 09:37:11;;;;;;;16.37;8.10;;;;;;;23.51;68.55;98211.01;125866;1095;102919;-86
2021/08/05 09:39:46;;;;;;;18.67;9.20;;;;;;;23.47;68.95;98218.73;125977;1096;103331;-85
2021/08/05 09:42:21;;;;;;;17.27;8.27;;;;;;;23.45;68.33;98218.12;125924;1094;102994;-83
2021/08/05 09:44:49;;;;;;;14.83;8.33;;;;;;;23.35;68.48;98220.48;125857;1094;102937;-84
2021/08/05 09:47:23;;;;;;;18.87;9.10;;;;;;;23.26;68.50;98211.73;125897;1096;103408;-83
2021/08/05 09:49:55;;;;;;;16.77;8.10;;;;;;;23.26;68.43;98213.63;125646;1096;102995;-80
2021/08/05 09:52:27;;;;;;;;;;;;;;;23.21;68.08;98214.25;125678;1093;102947;-78
2021/08/05 09:55:01;;;;;;;17.30;8.93;;;;;;;23.16;68.29;98208.63;125870;1093;102984;-84
2021/08/05 09:57:33;;;;;;;14.90;8.10;;;;;;;23.15;68.60;98205.08;126014;1095;103032;-87
2021/08/05 10:00:08;;;;;;;16.13;8.50;;;;;;;23.14;68.12;98199.88;126141;1094;102828;-84
2021/08/05 10:02:42;;;;;;;16.50;8.47;;;;;;;23.13;68.30;98181.94;125964;1093;103087;-86
2021/08/05 10:05:15;;;;;;;15.33;8.23;;;;;;;23.11;67.68;98192.17;125905;1094;102930;-83
2021/08/05 10:07:47;;;;;;;16.98;8.55;;;;;;;23.08;68.20;98189.88;125697;1094;102917;-82
2021/08/05 10:10:27;;;;;;;16.40;8.05;;;;;;;23.08;67.77;98179.03;125665;1095;102942;-81
2021/08/05 10:13:03;;;;;;;17.10;8.20;;;;;;;23.03;67.55;98175.08;126050;1093;103005;-81
2021/08/05 10:15:31;;;;;;;17.10;8.08;;;;;;;22.94;67.99;98170.13;125695;1093;102911;-82
2021/08/05 10:18:04;;;;;;;16.60;8.30;;;;;;;22.88;67.88;98172.64;125662;1093;102937;-76
2021/08/05 10:20:33;;;;;;;16.73;8.35;;;;;;;22.89;67.66;98168.03;125703;1095;102913;-80
2021/08/05 10:23:04;;;;;;;14.73;7.60;;;;;;;22.90;68.01;98172.41;125637;1095;103071;-78
2021/08/05 10:25:34;;;;;;;17.45;8.20;;;;;;;22.88;67.50;98155.52;125649;1095;103036;-79
2021/08/05 10:28:03;;;;;;;14.37;7.60;;;;;;;22.88;67.44;98163.66;125621;1094;103596;-78
2021/08/05 10:30:32;;;;;;;16.73;8.07;;;;;;;22.88;68.09;98167.22;125630;1094;103010;-78
2021/08/05 10:33:02;;;;;;;15.53;7.80;;;;;;;22.91;67.71;98163.23;125655;1096;103026;-76
2021/08/05 10:35:31;;;;;;;16.47;8.00;;;;;;;22.92;67.70;98159.47;125634;1095;103011;-75
2021/08/05 10:38:04;;;;;;;17.47;7.40;;;;;;;22.90;67.55;98158.85;125643;1095;103091;-76
2021/08/05 10:40:33;;;;;;;14.75;7.95;;;;;;;22.91;67.47;98146.96;125590;1094;103017;-77
2021/08/05 10:43:01;;;;;;;15.27;8.00;;;;;;;22.96;67.75;98144.44;125447;1093;102923;-78
2021/08/05 10:45:29;;;;;;;17.63;8.23;;;;;;;22.98;67.80;98133.41;125556;1093;103018;-83
2021/08/05 10:47:59;;;;;;;16.37;7.73;;;;;;;23.02;67.84;98137.34;125492;1093;102914;-80
2021/08/05 10:50:30;;;;;;;14.80;7.67;;;;;;;23.07;67.50;98134.80;125535;1093;103057;-79
2021/08/05 10:52:58;;;;;;;15.95;7.75;;;;;;;23.16;67.43;98119.94;125899;1093;103091;-84
2021/08/05 10:55:41;;;;;;;13.47;7.00;;;;;;;23.23;67.56;98119.93;125595;1093;103080;-75
2021/08/05 10:58:12;;;;;;;18.90;7.20;;;;;;;23.30;67.68;98114.48;126034;1095;103044;-78
2021/08/05 11:00:50;;;;;;;14.97;7.03;;;;;;;23.37;67.66;98111.72;125603;1093;102920;-86
2021/08/05 11:03:55;;;;;;;12.50;7.13;;;;;;;23.42;67.67;98109.19;125562;1093;103432;-85
2021/08/05 11:06:22;;;;;;;14.23;6.70;;;;;;;23.45;67.28;98101.43;125940;1095;102945;-83
2021/08/05 11:08:51;;;;;;;12.60;6.70;;;;;;;23.44;67.56;98099.77;125573;1093;103492;-81
2021/08/05 11:11:25;;;;;;;13.20;7.05;;;;;;;23.42;67.58;98088.33;125623;1094;102983;-85
2021/08/05 11:14:01;;;;;;;19.57;7.43;;;;;;;23.39;67.07;98083.34;125960;1094;103196;-77
2021/08/05 11:17:01;;;;;;;16.07;7.97;;;;;;;23.35;67.04;98082.11;125518;1097;103597;-76
2021/08/05 11:19:35;;;;;;;13.23;7.27;;;;;;;23.37;67.34;98090.87;125553;1094;103007;-79
2021/08/05 11:22:34;;;;;;;14.07;7.03;;;;;;;23.39;67.25;98082.49;125473;1096;103062;-82
2021/08/05 11:25:03;;;;;;;17.57;7.70;;;;;;;23.38;67.22;98078.96;125521;1096;102948;-72